De Soto, Iowa
Current Conditions -  °F | °C
As of 4:54 PM on Friday 31 Oct 2014 (Local Time) from KDSM Reporting Station
Clear Clear  
Wind Chill: 36°   Ceiling: Unl
Heat Index: 43°   Visibility: 10mi
Dew Point: 16°   Wind: 13mph
Humidity: 34%   Direction: 350°N
Pressure: 30.46"   Gusts: NA
Location:  41.53°N, 94.01°W
Report Text: KDSM 312154Z 35011KT 10SM CLR 06/M09 A3046 RMK AO2 SLP322 T00611089
Loading
Personal Weather Stations






























Interactive Weather Map
Tropical Storm Tracking
New forecast layout! Learn more

10-Day Weather Forecast

Advertisements
Track Severe Weather on mobile